createdAt,value
2019-01-15T00:00:26.014Z,2.80
2019-01-15T00:02:54.435Z,2.90
2019-01-15T00:05:22.872Z,2.90
2019-01-15T00:07:51.366Z,2.90
2019-01-15T00:10:19.799Z,2.90
2019-01-15T00:12:48.232Z,2.80
2019-01-15T00:15:16.660Z,2.90
2019-01-15T00:17:45.098Z,3.00
2019-01-15T00:20:15.355Z,3.00
2019-01-15T00:22:43.880Z,2.90
2019-01-15T00:25:12.544Z,2.80
2019-01-15T00:27:40.985Z,2.80
2019-01-15T00:30:15.274Z,2.70
2019-01-15T00:32:43.761Z,2.80
2019-01-15T00:35:12.345Z,2.90
2019-01-15T00:37:40.831Z,3.00
2019-01-15T00:40:12.520Z,3.00
2019-01-15T00:42:40.937Z,3.00
2019-01-15T00:45:10.601Z,2.90
2019-01-15T00:47:39.101Z,3.00
2019-01-15T00:50:10.733Z,2.90
2019-01-15T00:52:39.170Z,2.90
2019-01-15T00:55:09.654Z,2.80
2019-01-15T00:57:38.116Z,2.80
2019-01-15T01:00:18.145Z,2.80
2019-01-15T01:02:46.660Z,2.70
2019-01-15T01:05:15.702Z,2.70
2019-01-15T01:07:44.202Z,2.70
2019-01-15T01:10:14.296Z,2.70
2019-01-15T01:12:42.957Z,2.70
2019-01-15T01:15:13.735Z,2.70
2019-01-15T01:17:42.303Z,2.80
2019-01-15T01:20:13.652Z,2.80
2019-01-15T01:22:42.140Z,2.80
2019-01-15T01:25:13.124Z,2.80
2019-01-15T01:27:41.638Z,2.90
2019-01-15T01:30:13.228Z,2.90
2019-01-15T01:32:41.668Z,2.80
2019-01-15T01:35:10.310Z,2.90
2019-01-15T01:37:38.752Z,2.90
2019-01-15T01:40:12.896Z,2.90
2019-01-15T01:42:41.342Z,2.70
2019-01-15T01:45:12.449Z,2.60
2019-01-15T01:47:41.825Z,2.60
2019-01-15T01:50:12.304Z,2.60
2019-01-15T01:52:41.366Z,2.50
2019-01-15T01:55:11.844Z,2.50
2019-01-15T01:57:40.283Z,2.50
2019-01-15T02:00:12.089Z,2.40
2019-01-15T02:02:40.531Z,2.40
2019-01-15T02:05:09.611Z,2.50
2019-01-15T02:07:38.201Z,2.50
2019-01-15T02:10:09.776Z,2.50
2019-01-15T02:12:38.354Z,2.60
2019-01-15T02:15:09.853Z,2.70
2019-01-15T02:17:40.235Z,2.50
2019-01-15T02:20:11.305Z,2.60
2019-01-15T02:22:39.920Z,2.50
2019-01-15T02:25:09.688Z,2.40
2019-01-15T02:27:40.000Z,2.40
2019-01-15T02:30:17.112Z,2.40
2019-01-15T02:32:45.754Z,2.30
2019-01-15T02:35:14.324Z,2.30
2019-01-15T02:37:42.818Z,2.40
2019-01-15T02:40:13.513Z,2.40
2019-01-15T02:42:46.664Z,2.40
2019-01-15T02:45:15.075Z,2.40
2019-01-15T02:47:43.585Z,2.40
2019-01-15T02:50:14.553Z,2.30
2019-01-15T02:52:43.245Z,2.30
2019-01-15T02:55:12.300Z,2.40
2019-01-15T02:57:40.732Z,2.30
2019-01-15T03:00:18.210Z,2.30
2019-01-15T03:02:46.632Z,2.30
2019-01-15T03:05:15.402Z,2.20
2019-01-15T03:07:43.902Z,2.20
2019-01-15T03:10:15.249Z,2.30
2019-01-15T03:12:45.488Z,2.30
2019-01-15T03:15:13.981Z,2.30
2019-01-15T03:17:42.420Z,2.30
2019-01-15T03:20:13.296Z,2.30
2019-01-15T03:22:41.752Z,2.30
2019-01-15T03:25:11.134Z,2.30
2019-01-15T03:27:39.712Z,2.20
2019-01-15T03:30:13.960Z,2.20
2019-01-15T03:32:43.668Z,2.30
2019-01-15T03:35:12.244Z,2.20
2019-01-15T03:37:40.736Z,2.20
2019-01-15T03:40:12.589Z,2.10
2019-01-15T03:42:41.020Z,2.10
2019-01-15T03:45:10.106Z,2.10
2019-01-15T03:47:38.545Z,2.00
2019-01-15T03:50:08.944Z,2.00
2019-01-15T03:52:37.469Z,2.10
2019-01-15T03:55:08.357Z,2.20
2019-01-15T03:57:36.794Z,2.20
2019-01-15T04:00:10.981Z,2.20
2019-01-15T04:02:39.480Z,2.10
2019-01-15T04:05:08.726Z,2.00
2019-01-15T04:07:37.512Z,2.10
2019-01-15T04:10:09.213Z,2.10
2019-01-15T04:12:37.802Z,2.10
2019-01-15T04:15:09.454Z,2.00
2019-01-15T04:17:37.973Z,2.00
2019-01-15T04:20:17.203Z,2.10
2019-01-15T04:22:45.875Z,2.10
2019-01-15T04:25:14.948Z,2.00
2019-01-15T04:27:43.521Z,2.10
2019-01-15T04:30:19.914Z,2.20
2019-01-15T04:32:48.434Z,2.10
2019-01-15T04:35:16.918Z,2.10
2019-01-15T04:37:45.440Z,2.10
2019-01-15T04:40:16.532Z,2.10
2019-01-15T04:42:45.124Z,1.90
2019-01-15T04:45:18.541Z,2.00
2019-01-15T04:47:47.112Z,1.90
2019-01-15T04:50:16.302Z,2.10
2019-01-15T04:52:46.732Z,2.10
2019-01-15T04:55:15.364Z,2.10
2019-01-15T04:57:43.816Z,2.20
2019-01-15T05:00:19.761Z,2.20
2019-01-15T05:02:48.644Z,2.10
2019-01-15T05:05:17.316Z,2.10
2019-01-15T05:07:45.747Z,2.10
2019-01-15T05:10:15.829Z,2.10
2019-01-15T05:12:44.323Z,2.10
2019-01-15T05:15:15.095Z,2.10
2019-01-15T05:17:44.092Z,2.00
2019-01-15T05:20:15.361Z,2.10
2019-01-15T05:22:43.887Z,2.20
2019-01-15T05:25:15.094Z,2.10
2019-01-15T05:27:45.059Z,2.10
2019-01-15T05:30:16.731Z,2.10
2019-01-15T05:32:45.172Z,2.10
2019-01-15T05:35:13.729Z,2.10
2019-01-15T05:37:42.184Z,2.00
2019-01-15T05:40:13.133Z,1.90
2019-01-15T05:42:41.708Z,2.00
2019-01-15T05:45:14.917Z,1.90
2019-01-15T05:47:43.896Z,1.90
2019-01-15T05:50:14.130Z,2.00
2019-01-15T05:52:42.547Z,1.90
2019-01-15T05:55:11.104Z,1.90
2019-01-15T05:57:39.617Z,2.00
2019-01-15T06:00:28.893Z,2.10
2019-01-15T06:02:57.403Z,2.00
2019-01-15T06:05:25.823Z,2.30
2019-01-15T06:07:54.250Z,2.20
2019-01-15T06:10:22.758Z,2.20
2019-01-15T06:12:51.229Z,2.20
2019-01-15T06:15:19.669Z,2.10
2019-01-15T06:17:48.113Z,2.10
2019-01-15T06:20:20.646Z,2.20
2019-01-15T06:22:49.309Z,2.20
2019-01-15T06:25:17.911Z,2.20
2019-01-15T06:27:46.680Z,2.30
2019-01-15T06:30:22.145Z,2.40
2019-01-15T06:32:50.654Z,2.50
2019-01-15T06:35:20.213Z,2.50
2019-01-15T06:37:48.706Z,2.60
2019-01-15T06:40:19.160Z,2.70
2019-01-15T06:42:48.028Z,2.60
2019-01-15T06:45:19.373Z,2.50
2019-01-15T06:47:47.914Z,2.50
2019-01-15T06:50:16.440Z,2.40
2019-01-15T06:52:45.334Z,2.40
2019-01-15T06:55:16.443Z,2.30
2019-01-15T06:57:47.596Z,2.30
2019-01-15T07:00:22.028Z,2.30
2019-01-15T07:02:50.794Z,2.30
2019-01-15T07:05:20.013Z,2.20
2019-01-15T07:07:48.580Z,2.20
2019-01-15T07:10:20.204Z,2.20
2019-01-15T07:12:48.952Z,2.10
2019-01-15T07:15:17.503Z,2.20
2019-01-15T07:17:46.011Z,2.00
2019-01-15T07:20:17.652Z,2.10
2019-01-15T07:22:46.612Z,2.10
2019-01-15T07:25:17.591Z,2.30
2019-01-15T07:27:46.095Z,2.20
2019-01-15T07:30:19.999Z,2.30
2019-01-15T07:32:48.511Z,2.40
2019-01-15T07:35:16.932Z,2.30
2019-01-15T07:37:45.374Z,2.40
2019-01-15T07:40:14.537Z,2.50
2019-01-15T07:42:43.341Z,2.50
2019-01-15T07:45:13.634Z,2.50
2019-01-15T07:47:42.126Z,2.50
2019-01-15T07:50:16.055Z,2.50
2019-01-15T07:52:44.668Z,2.50
2019-01-15T07:55:15.436Z,2.60
2019-01-15T07:57:43.945Z,2.70
2019-01-15T08:00:18.311Z,2.80
2019-01-15T08:02:46.826Z,2.70
2019-01-15T08:05:17.809Z,2.60
2019-01-15T08:07:46.292Z,2.70
2019-01-15T08:10:16.684Z,2.80
2019-01-15T08:12:45.672Z,2.70
2019-01-15T08:15:17.110Z,2.70
2019-01-15T08:17:45.872Z,2.80
2019-01-15T08:20:15.051Z,2.80
2019-01-15T08:22:43.712Z,2.90
2019-01-15T08:25:14.390Z,3.10
2019-01-15T08:27:42.880Z,3.00
2019-01-15T08:30:14.613Z,3.10
2019-01-15T08:32:43.056Z,3.20
2019-01-15T08:35:11.725Z,3.30
2019-01-15T08:37:40.173Z,3.40
2019-01-15T08:40:11.500Z,3.40
2019-01-15T08:42:40.009Z,3.40
2019-01-15T08:45:10.568Z,3.50
2019-01-15T08:47:40.647Z,3.50
2019-01-15T08:50:15.115Z,3.50
2019-01-15T08:52:43.529Z,3.50
2019-01-15T08:55:12.025Z,3.60
2019-01-15T08:57:40.491Z,3.60
2019-01-15T09:00:11.922Z,3.60
2019-01-15T09:02:40.368Z,3.70
2019-01-15T09:05:09.034Z,3.80
2019-01-15T09:07:37.596Z,3.80
2019-01-15T09:10:11.675Z,3.90
2019-01-15T09:12:41.071Z,4.00
2019-01-15T09:15:12.593Z,4.00
2019-01-15T09:17:41.092Z,4.10
2019-01-15T09:20:12.617Z,4.10
2019-01-15T09:22:41.131Z,4.10
2019-01-15T09:25:09.921Z,4.00
2019-01-15T09:27:38.538Z,4.10
2019-01-15T09:30:10.128Z,4.20
2019-01-15T09:32:38.550Z,4.20
2019-01-15T09:35:07.070Z,4.20
2019-01-15T09:37:36.225Z,4.30
2019-01-15T09:40:10.993Z,4.40
2019-01-15T09:42:39.424Z,4.40
2019-01-15T09:45:11.062Z,4.30
2019-01-15T09:47:41.212Z,4.30
2019-01-15T09:50:13.332Z,4.40
2019-01-15T09:52:41.905Z,4.50
2019-01-15T09:55:10.883Z,4.30
2019-01-15T09:57:39.348Z,4.40
2019-01-15T10:00:16.648Z,4.40
2019-01-15T10:02:45.176Z,4.50
2019-01-15T10:05:13.652Z,4.40
2019-01-15T10:07:42.114Z,4.40
2019-01-15T10:10:13.702Z,4.40
2019-01-15T10:12:42.156Z,4.40
2019-01-15T10:15:16.888Z,4.50
2019-01-15T10:17:45.381Z,4.70
2019-01-15T10:20:16.065Z,4.90
2019-01-15T10:22:44.823Z,5.30
2019-01-15T10:25:15.141Z,5.50
2019-01-15T10:27:44.466Z,5.80
2019-01-15T10:30:26.679Z,6.00
2019-01-15T10:33:01.195Z,5.80
2019-01-15T10:35:35.834Z,5.50
2019-01-15T10:38:04.665Z,5.90
2019-01-15T10:40:33.186Z,5.90
2019-01-15T10:43:02.641Z,5.60
2019-01-15T10:45:31.067Z,5.40
2019-01-15T10:47:59.519Z,5.40
2019-01-15T10:50:28.020Z,5.20
2019-01-15T10:52:59.765Z,5.10
2019-01-15T10:55:29.917Z,5.00
2019-01-15T10:57:58.545Z,5.10
2019-01-15T11:00:27.108Z,5.30
2019-01-15T11:02:55.545Z,5.30
2019-01-15T11:05:23.980Z,5.30
2019-01-15T11:07:52.432Z,5.10
2019-01-15T11:10:20.873Z,4.90
2019-01-15T11:12:49.291Z,5.00
2019-01-15T11:15:17.736Z,5.20
2019-01-15T11:17:46.222Z,5.00
2019-01-15T11:20:17.795Z,5.10
2019-01-15T11:22:46.228Z,5.10
2019-01-15T11:25:15.192Z,5.20
2019-01-15T11:27:43.778Z,5.10
2019-01-15T11:30:14.443Z,5.20
2019-01-15T11:32:42.943Z,5.10
2019-01-15T11:35:12.828Z,5.20
2019-01-15T11:37:41.345Z,5.20
2019-01-15T11:40:13.098Z,5.10
2019-01-15T11:42:41.523Z,5.20
2019-01-15T11:45:15.742Z,5.30
2019-01-15T11:47:44.234Z,5.30
2019-01-15T11:50:15.864Z,5.30
2019-01-15T11:52:44.455Z,5.20
2019-01-15T11:55:13.023Z,5.30
2019-01-15T11:57:41.549Z,5.30
2019-01-15T12:00:17.660Z,5.40
2019-01-15T12:02:47.983Z,5.50
2019-01-15T12:05:18.061Z,5.40
2019-01-15T12:08:03.237Z,5.40
2019-01-15T12:10:33.412Z,5.40
2019-01-15T12:13:19.951Z,5.40
2019-01-15T12:15:55.744Z,5.30
2019-01-15T12:18:25.838Z,5.20
2019-01-15T12:21:02.111Z,5.20
2019-01-15T12:23:41.437Z,5.40
2019-01-15T12:26:11.513Z,5.40
2019-01-15T12:28:44.564Z,5.40
2019-01-15T12:31:23.525Z,5.50
2019-01-15T12:34:02.840Z,5.30
2019-01-15T12:36:49.145Z,5.30
2019-01-15T12:39:24.930Z,5.40
2019-01-15T12:42:00.980Z,5.40
2019-01-15T12:44:47.349Z,5.60
2019-01-15T12:47:33.884Z,5.60
2019-01-15T12:50:03.973Z,5.40
2019-01-15T12:52:36.823Z,5.50
2019-01-15T12:55:25.052Z,5.60
2019-01-15T12:58:11.842Z,5.70
2019-01-15T13:00:44.888Z,5.70
2019-01-15T13:03:14.951Z,5.60
2019-01-15T13:06:01.749Z,5.50
2019-01-15T13:08:34.473Z,5.60
2019-01-15T13:11:20.850Z,5.50
2019-01-15T13:14:07.493Z,5.40
2019-01-15T13:16:40.387Z,5.30
2019-01-15T13:19:10.512Z,5.30
2019-01-15T13:21:40.580Z,5.40
2019-01-15T13:24:13.840Z,5.40
2019-01-15T13:26:55.944Z,5.50
2019-01-15T13:29:28.728Z,5.60
2019-01-15T13:32:01.519Z,5.60
2019-01-15T13:34:40.476Z,5.60
2019-01-15T13:37:10.544Z,5.60
2019-01-15T13:39:57.196Z,5.60
2019-01-15T13:42:46.831Z,5.50
2019-01-15T13:45:19.576Z,5.60
2019-01-15T13:48:04.437Z,5.60
2019-01-15T13:50:40.110Z,5.50
2019-01-15T13:53:10.168Z,5.50
2019-01-15T13:55:56.551Z,5.40
2019-01-15T13:58:29.584Z,5.30
2019-01-15T14:00:59.713Z,5.30
2019-01-15T14:03:46.260Z,5.40
2019-01-15T14:06:19.147Z,5.40
2019-01-15T14:08:55.012Z,5.40
2019-01-15T14:11:43.425Z,5.30
2019-01-15T14:14:16.323Z,5.30
2019-01-15T14:16:49.055Z,5.30
2019-01-15T14:19:19.128Z,5.30
2019-01-15T14:21:49.218Z,5.30
2019-01-15T14:24:22.275Z,5.30
2019-01-15T14:26:52.365Z,5.30
2019-01-15T14:29:38.650Z,5.20
2019-01-15T14:32:17.935Z,5.20
2019-01-15T14:35:03.152Z,5.20
2019-01-15T14:37:36.018Z,5.30
2019-01-15T14:40:09.495Z,5.30
2019-01-15T14:42:45.949Z,5.20
2019-01-15T14:45:16.162Z,5.20
2019-01-15T14:47:52.216Z,5.20
2019-01-15T14:50:40.562Z,5.20
2019-01-15T14:53:28.059Z,5.20
2019-01-15T14:56:03.794Z,5.30
2019-01-15T14:58:39.717Z,5.30
2019-01-15T15:01:15.804Z,5.30
2019-01-15T15:03:45.889Z,5.30
2019-01-15T15:06:33.990Z,5.30
2019-01-15T15:09:06.792Z,5.30
2019-01-15T15:11:48.840Z,5.30
2019-01-15T15:14:19.000Z,5.30
2019-01-15T15:17:05.732Z,5.30
2019-01-15T15:19:48.119Z,5.30
2019-01-15T15:22:18.184Z,5.20
2019-01-15T15:24:54.574Z,5.20
2019-01-15T15:27:27.587Z,5.10
2019-01-15T15:30:06.640Z,5.10
2019-01-15T15:32:53.114Z,5.10
2019-01-15T15:35:41.303Z,5.10
2019-01-15T15:38:14.208Z,5.10
2019-01-15T15:40:44.284Z,5.10
2019-01-15T15:43:14.382Z,5.10
2019-01-15T15:45:47.040Z,5.10
2019-01-15T15:48:20.062Z,5.10
2019-01-15T15:51:02.250Z,5.10
2019-01-15T15:53:34.833Z,5.10
2019-01-15T15:56:21.215Z,5.10
2019-01-15T15:59:03.420Z,5.00
2019-01-15T16:01:42.329Z,5.00
2019-01-15T16:04:28.558Z,5.00
2019-01-15T16:07:07.652Z,5.00
2019-01-15T16:09:43.793Z,5.00
2019-01-15T16:12:16.400Z,5.10
2019-01-15T16:14:46.469Z,5.10
2019-01-15T16:17:34.932Z,5.10
2019-01-15T16:20:15.163Z,5.10
2019-01-15T16:22:45.253Z,5.10
2019-01-15T16:25:24.474Z,5.00
2019-01-15T16:28:00.456Z,5.00
2019-01-15T16:30:39.337Z,5.00
2019-01-15T16:33:12.108Z,4.90
2019-01-15T16:35:42.177Z,4.90
2019-01-15T16:38:12.246Z,5.00
2019-01-15T16:41:00.429Z,5.00
2019-01-15T16:43:36.160Z,5.00
2019-01-15T16:46:06.807Z,5.00
2019-01-15T16:48:37.005Z,5.00
2019-01-15T16:51:07.220Z,5.00
2019-01-15T16:53:55.382Z,5.00
2019-01-15T16:56:31.390Z,5.00
2019-01-15T16:59:04.228Z,5.10
2019-01-15T17:01:50.560Z,5.00
2019-01-15T17:04:20.628Z,5.00
2019-01-15T17:06:56.624Z,5.10
2019-01-15T17:09:42.929Z,5.00
2019-01-15T17:12:13.048Z,5.10
2019-01-15T17:14:59.766Z,5.10
2019-01-15T17:17:32.548Z,5.10
2019-01-15T17:20:05.565Z,5.10
2019-01-15T17:22:44.178Z,5.10
2019-01-15T17:25:23.088Z,5.20
2019-01-15T17:28:05.598Z,5.10
2019-01-15T17:30:38.428Z,5.10
2019-01-15T17:33:09.372Z,5.10
2019-01-15T17:35:42.443Z,5.10
2019-01-15T17:38:21.283Z,5.20
2019-01-15T17:40:51.404Z,5.20
2019-01-15T17:43:39.821Z,5.10
2019-01-15T17:46:18.828Z,5.10
2019-01-15T17:48:55.173Z,5.10
2019-01-15T17:51:37.202Z,5.10
2019-01-15T17:54:10.278Z,5.10
2019-01-15T17:56:52.156Z,5.10
2019-01-15T17:59:38.450Z,5.10
2019-01-15T18:02:14.676Z,5.20
2019-01-15T18:04:53.527Z,5.20
2019-01-15T18:07:23.609Z,5.10
2019-01-15T18:09:56.883Z,5.10
2019-01-15T18:12:35.761Z,5.20
2019-01-15T18:15:13.590Z,5.20
2019-01-15T18:17:49.728Z,5.10
2019-01-15T18:20:25.594Z,5.10
2019-01-15T18:22:58.548Z,5.10
2019-01-15T18:25:31.386Z,5.10
2019-01-15T18:28:01.480Z,5.10
2019-01-15T18:30:34.280Z,5.20
2019-01-15T18:33:04.340Z,5.20
2019-01-15T18:35:43.930Z,5.10
2019-01-15T18:38:16.614Z,5.10
2019-01-15T18:40:46.739Z,5.10
2019-01-15T18:43:19.308Z,5.20
2019-01-15T18:45:52.410Z,5.20
2019-01-15T18:48:39.047Z,5.30
2019-01-15T18:51:25.571Z,5.30
2019-01-15T18:54:11.997Z,5.30
2019-01-15T18:56:42.085Z,5.30
2019-01-15T18:59:14.909Z,5.30
2019-01-15T19:01:56.882Z,5.30
2019-01-15T19:04:26.946Z,5.30
2019-01-15T19:06:57.055Z,5.30
2019-01-15T19:09:27.181Z,5.30
2019-01-15T19:12:12.246Z,5.30
2019-01-15T19:14:48.231Z,5.30
2019-01-15T19:17:34.606Z,5.30
2019-01-15T19:20:06.192Z,5.30
2019-01-15T19:22:36.255Z,5.30
2019-01-15T19:25:19.973Z,5.30
2019-01-15T19:27:52.781Z,5.20
2019-01-15T19:30:38.265Z,5.20
2019-01-15T19:33:23.607Z,5.20
2019-01-15T19:36:05.229Z,5.20
2019-01-15T19:38:44.506Z,5.20
2019-01-15T19:41:17.346Z,5.20
2019-01-15T19:43:56.649Z,5.20
2019-01-15T19:46:26.750Z,5.10
2019-01-15T19:49:02.784Z,5.10
2019-01-15T19:51:40.876Z,5.10
2019-01-15T19:54:20.208Z,5.10
2019-01-15T19:56:50.348Z,5.10
2019-01-15T19:59:32.356Z,5.10
2019-01-15T20:02:14.682Z,5.10
2019-01-15T20:04:54.212Z,5.20
2019-01-15T20:07:40.382Z,5.10
2019-01-15T20:10:28.557Z,5.10
2019-01-15T20:12:58.649Z,5.20
2019-01-15T20:15:28.796Z,5.10
2019-01-15T20:18:02.022Z,5.10
2019-01-15T20:20:40.308Z,5.00
2019-01-15T20:23:10.424Z,5.20
2019-01-15T20:25:49.523Z,5.20
2019-01-15T20:28:26.869Z,5.10
2019-01-15T20:30:57.021Z,5.10
2019-01-15T20:33:43.761Z,5.10
2019-01-15T20:36:17.107Z,5.20
2019-01-15T20:38:50.080Z,5.10
2019-01-15T20:41:22.871Z,5.10
2019-01-15T20:44:09.852Z,5.10
2019-01-15T20:46:49.298Z,5.10
2019-01-15T20:49:31.139Z,5.10
2019-01-15T20:52:01.600Z,5.10
2019-01-15T20:54:43.491Z,5.10
2019-01-15T20:57:30.191Z,5.00
2019-01-15T21:00:00.296Z,5.00
2019-01-15T21:02:33.473Z,5.10
2019-01-15T21:05:12.229Z,5.10
2019-01-15T21:07:42.329Z,5.10
2019-01-15T21:10:31.853Z,5.00
2019-01-15T21:13:06.922Z,5.00
2019-01-15T21:15:37.004Z,5.10
2019-01-15T21:18:07.132Z,5.10
2019-01-15T21:20:37.285Z,5.10
2019-01-15T21:23:10.183Z,5.10
2019-01-15T21:25:53.067Z,5.10
2019-01-15T21:28:32.171Z,5.10
2019-01-15T21:31:02.825Z,5.10
2019-01-15T21:33:32.957Z,5.10
2019-01-15T21:36:03.119Z,5.10
2019-01-15T21:38:33.188Z,5.10
2019-01-15T21:41:09.288Z,5.00
2019-01-15T21:43:39.372Z,5.00
2019-01-15T21:46:09.601Z,5.00
2019-01-15T21:48:56.031Z,5.10
2019-01-15T21:51:29.535Z,5.00
2019-01-15T21:54:00.863Z,5.10
2019-01-15T21:56:30.992Z,5.00
2019-01-15T21:59:01.524Z,5.00
2019-01-15T22:01:31.604Z,5.00
2019-01-15T22:04:13.790Z,4.90
2019-01-15T22:06:58.943Z,4.90
2019-01-15T22:09:45.341Z,4.90
2019-01-15T22:12:24.750Z,4.90
2019-01-15T22:14:55.299Z,4.80
2019-01-15T22:17:34.509Z,4.90
2019-01-15T22:20:06.102Z,4.80
2019-01-15T22:22:36.235Z,4.80
2019-01-15T22:25:09.257Z,4.80
2019-01-15T22:27:57.815Z,4.80
2019-01-15T22:30:27.908Z,4.90
2019-01-15T22:33:14.256Z,4.90
2019-01-15T22:35:44.663Z,5.00
2019-01-15T22:38:18.329Z,4.90
2019-01-15T22:40:48.421Z,4.80
2019-01-15T22:43:21.495Z,4.80
2019-01-15T22:46:01.975Z,4.70
2019-01-15T22:48:32.119Z,4.80
2019-01-15T22:51:02.233Z,4.80
2019-01-15T22:53:32.341Z,4.80
2019-01-15T22:56:11.144Z,4.80
2019-01-15T22:58:44.280Z,4.80
2019-01-15T23:01:17.440Z,4.80
2019-01-15T23:03:50.230Z,4.80
2019-01-15T23:06:38.463Z,4.80
2019-01-15T23:09:26.923Z,4.80
2019-01-15T23:11:57.225Z,4.80
2019-01-15T23:14:27.310Z,4.90
2019-01-15T23:16:57.567Z,4.90
2019-01-15T23:19:37.652Z,4.90
2019-01-15T23:22:10.682Z,4.80
2019-01-15T23:24:40.753Z,4.90
2019-01-15T23:27:13.829Z,4.90
2019-01-15T23:29:58.695Z,5.00
2019-01-15T23:32:28.792Z,5.00
2019-01-15T23:35:01.547Z,5.00
2019-01-15T23:37:31.624Z,5.00
2019-01-15T23:40:07.660Z,5.00
2019-01-15T23:42:40.200Z,5.00
2019-01-15T23:45:27.032Z,5.00
2019-01-15T23:48:09.831Z,4.90
2019-01-15T23:50:43.056Z,4.90
2019-01-15T23:53:29.413Z,5.00
2019-01-15T23:56:08.363Z,4.90
2019-01-15T23:58:41.593Z,4.90
